Time;durP1;ratioP1;P1;durP2;ratioP2;P2;SDS_P1;SDS_P2;PMS_P1;PMS_P2;Temp;Humidity;BMP_temperature;BMP_pressure;BME280_temperature;BME280_humidity;BME280_pressure;Samples;Min_cycle;Max_cycle;Signal;HPM_P1;HPM_P2
2021/09/17 00:01:03;;;;;;;1.33;1.30;;;13.80;98.00;;;;;;5031690;28;20460;-71
2021/09/17 00:03:31;;;;;;;1.30;1.20;;;13.80;98.00;;;;;;5032292;28;20579;-71
2021/09/17 00:05:59;;;;;;;1.37;1.33;;;13.70;98.00;;;;;;5032177;28;20500;-71
2021/09/17 00:08:26;;;;;;;1.73;1.33;;;13.70;98.00;;;;;;5032010;28;20552;-70
2021/09/17 00:10:53;;;;;;;2.23;1.57;;;13.80;98.00;;;;;;5032140;28;20457;-74
2021/09/17 00:13:22;;;;;;;1.30;1.30;;;13.90;98.00;;;;;;5014681;28;20527;-73
2021/09/17 00:15:49;;;;;;;1.67;1.50;;;14.00;98.00;;;;;;5031953;28;20519;-71
2021/09/17 00:18:17;;;;;;;1.60;1.43;;;14.00;98.00;;;;;;5032254;28;20517;-70
2021/09/17 00:20:44;;;;;;;1.63;1.40;;;14.10;98.00;;;;;;5032004;28;20461;-71
2021/09/17 00:23:11;;;;;;;1.40;1.10;;;14.00;98.00;;;;;;5031816;28;20460;-71
2021/09/17 00:25:38;;;;;;;2.20;1.50;;;13.90;98.00;;;;;;5031856;28;20923;-71
2021/09/17 00:28:06;;;;;;;1.50;1.30;;;13.90;98.00;;;;;;5031918;28;20793;-71
2021/09/17 00:30:34;;;;;;;1.30;1.30;;;14.00;98.00;;;;;;5014404;28;20499;-72
2021/09/17 00:33:01;;;;;;;1.63;1.30;;;14.00;98.00;;;;;;5031886;28;21114;-71
2021/09/17 00:35:28;;;;;;;1.40;1.23;;;13.90;98.00;;;;;;5031649;28;20489;-71
2021/09/17 00:37:55;;;;;;;1.20;1.10;;;13.90;98.00;;;;;;5031842;28;20460;-73
2021/09/17 00:40:23;;;;;;;1.20;1.10;;;13.90;98.00;;;;;;5031899;28;20555;-70
2021/09/17 00:42:50;;;;;;;2.17;1.53;;;14.00;98.00;;;;;;5031834;28;20519;-72
2021/09/17 00:45:18;;;;;;;1.43;1.17;;;14.10;98.00;;;;;;5031752;28;20550;-70
2021/09/17 00:47:47;;;;;;;1.63;1.50;;;14.00;98.00;;;;;;5031896;28;20486;-72
2021/09/17 00:50:17;;;;;;;1.40;1.40;;;14.00;98.00;;;;;;5031924;28;20493;-71
2021/09/17 00:52:45;;;;;;;1.67;1.20;;;14.10;98.00;;;;;;5031675;28;20456;-71
2021/09/17 00:55:12;;;;;;;1.60;1.50;;;14.10;98.00;;;;;;5031864;28;20454;-71
2021/09/17 00:57:40;;;;;;;1.80;1.63;;;14.20;98.00;;;;;;5031751;28;20488;-70
2021/09/17 01:00:10;;;;;;;1.50;1.40;;;14.20;98.00;;;;;;5031655;28;20463;-72
2021/09/17 01:02:37;;;;;;;2.27;1.37;;;14.20;98.00;;;;;;5031577;28;21012;-70
2021/09/17 01:05:08;;;;;;;1.83;1.47;;;14.10;98.00;;;;;;5031295;28;20489;-72
2021/09/17 01:07:35;;;;;;;1.30;1.23;;;14.10;98.00;;;;;;5031494;28;20594;-72
2021/09/17 01:10:03;;;;;;;1.30;1.20;;;14.20;98.00;;;;;;5031433;28;20542;-71
2021/09/17 01:12:30;;;;;;;1.33;1.30;;;14.30;98.00;;;;;;5031203;28;20502;-71
2021/09/17 01:14:58;;;;;;;1.87;1.73;;;14.30;98.00;;;;;;5034698;28;20484;-72
2021/09/17 01:17:31;;;;;;;1.77;1.27;;;14.20;98.00;;;;;;5035515;28;20526;-72
2021/09/17 01:19:58;;;;;;;2.77;1.50;;;14.10;98.00;;;;;;5035348;28;20451;-71
2021/09/17 01:22:27;;;;;;;1.50;1.47;;;14.20;98.00;;;;;;5035251;28;20456;-72
2021/09/17 01:24:56;;;;;;;1.20;1.00;;;14.10;98.00;;;;;;5035270;28;20549;-71
2021/09/17 01:30:11;;;;;;;1.40;1.40;;;14.10;98.00;;;;;;5033962;28;20557;-72
2021/09/17 01:32:41;;;;;;;1.80;1.30;;;14.20;98.00;;;;;;5035162;28;20457;-72
2021/09/17 01:35:10;;;;;;;1.30;1.30;;;14.10;98.00;;;;;;5017842;28;20506;-72
2021/09/17 01:37:39;;;;;;;2.40;1.20;;;14.20;98.00;;;;;;5035169;28;20468;-73
2021/09/17 01:40:08;;;;;;;2.17;1.60;;;14.30;98.00;;;;;;5035063;28;20500;-72
2021/09/17 01:42:35;;;;;;;4.20;1.87;;;14.30;98.00;;;;;;5035114;28;20515;-70
2021/09/17 01:45:03;;;;;;;2.83;1.90;;;14.30;98.00;;;;;;5034842;28;20518;-70
2021/09/17 01:47:30;;;;;;;1.30;1.30;;;14.10;98.00;;;;;;5035047;28;20536;-72
2021/09/17 01:49:57;;;;;;;3.47;1.30;;;14.00;98.00;;;;;;5034815;28;20821;-72
2021/09/17 01:52:24;;;;;;;1.97;1.50;;;14.00;98.00;;;;;;5034857;28;20493;-72
2021/09/17 01:54:55;;;;;;;1.20;1.20;;;14.00;98.00;;;;;;5034936;28;20501;-71
2021/09/17 01:57:22;;;;;;;2.50;1.90;;;14.10;98.00;;;;;;5034898;28;20463;-71
2021/09/17 01:59:49;;;;;;;1.67;1.40;;;14.20;98.00;;;;;;5034946;28;20491;-71
2021/09/17 02:02:16;;;;;;;1.30;1.10;;;14.10;98.00;;;;;;5017292;28;20448;-72
2021/09/17 02:04:43;;;;;;;1.97;1.87;;;14.00;98.00;;;;;;5034744;28;20557;-71
2021/09/17 02:07:10;;;;;;;1.27;1.20;;;14.00;98.00;;;;;;5034883;28;20461;-71
2021/09/17 02:09:38;;;;;;;3.87;1.87;;;13.90;98.00;;;;;;5034601;28;20490;-73
2021/09/17 02:12:08;;;;;;;1.63;1.47;;;13.90;98.00;;;;;;5034625;28;20463;-70
2021/09/17 02:14:35;;;;;;;1.20;1.10;;;13.90;98.00;;;;;;5034730;28;20449;-71
2021/09/17 02:17:02;;;;;;;1.97;1.57;;;13.90;98.00;;;;;;5034810;28;20467;-71
2021/09/17 02:19:29;;;;;;;1.20;1.10;;;14.00;98.00;;;;;;5034355;28;20965;-71
2021/09/17 02:21:56;;;;;;;1.40;1.37;;;13.90;98.00;;;;;;5034620;28;20864;-71
2021/09/17 02:24:25;;;;;;;1.60;1.27;;;13.90;98.00;;;;;;5015872;28;20546;-70
2021/09/17 02:26:52;;;;;;;1.67;1.53;;;13.90;98.00;;;;;;5034274;28;20550;-71
2021/09/17 02:29:20;;;;;;;2.37;1.63;;;14.10;98.00;;;;;;5034187;28;20938;-71
2021/09/17 02:31:47;;;;;;;1.60;1.30;;;14.10;98.00;;;;;;5034005;28;20459;-73
2021/09/17 02:34:15;;;;;;;1.20;1.03;;;14.00;98.00;;;;;;5016513;28;20542;-70
2021/09/17 02:36:42;;;;;;;1.77;1.40;;;14.00;98.00;;;;;;5034130;28;20545;-72
2021/09/17 02:39:11;;;;;;;1.60;1.47;;;14.00;98.00;;;;;;5034026;28;20491;-71
2021/09/17 02:41:39;;;;;;;1.80;1.60;;;13.90;98.00;;;;;;5033840;28;20525;-71
2021/09/17 02:44:06;;;;;;;1.57;1.30;;;13.90;98.00;;;;;;5033777;28;20455;-72
2021/09/17 02:46:34;;;;;;;1.40;1.30;;;13.90;98.00;;;;;;5016296;28;20511;-71
2021/09/17 02:49:01;;;;;;;1.30;1.07;;;13.90;98.00;;;;;;5033743;28;20798;-73
2021/09/17 02:51:28;;;;;;;1.20;1.07;;;14.00;98.00;;;;;;5033593;28;20488;-72
2021/09/17 02:53:55;;;;;;;2.47;1.30;;;14.10;98.00;;;;;;5033776;28;20504;-73
2021/09/17 02:56:22;;;;;;;1.30;1.20;;;14.20;98.00;;;;;;5015875;28;20515;-71
2021/09/17 02:58:50;;;;;;;2.07;1.70;;;14.20;98.00;;;;;;5033528;28;20504;-71
2021/09/17 03:01:17;;;;;;;1.40;1.23;;;14.20;98.00;;;;;;5015976;28;20463;-71
2021/09/17 03:03:48;;;;;;;1.70;1.33;;;14.20;98.00;;;;;;5033562;28;20553;-71
2021/09/17 03:06:15;;;;;;;2.57;2.17;;;14.10;98.00;;;;;;5033124;28;21128;-71
2021/09/17 03:08:42;;;;;;;1.57;1.50;;;14.10;98.00;;;;;;5033515;28;21022;-72
2021/09/17 03:11:09;;;;;;;1.20;1.10;;;14.00;98.00;;;;;;5033342;28;20594;-71
2021/09/17 03:13:36;;;;;;;1.20;1.10;;;14.00;98.00;;;;;;5033658;28;21012;-71
2021/09/17 03:16:05;;;;;;;1.77;1.40;;;14.00;98.00;;;;;;5033175;28;20454;-71
2021/09/17 03:18:32;;;;;;;1.80;1.20;;;13.90;98.00;;;;;;5033270;28;20511;-70
2021/09/17 03:21:01;;;;;;;2.00;1.57;;;14.00;98.00;;;;;;5033202;28;20519;-73
2021/09/17 03:23:28;;;;;;;1.60;1.30;;;14.00;98.00;;;;;;5033254;28;20807;-72
2021/09/17 03:25:55;;;;;;;1.30;1.27;;;14.00;98.00;;;;;;5033150;28;20499;-71
2021/09/17 03:28:22;;;;;;;1.50;1.20;;;14.10;98.00;;;;;;5033324;28;20492;-71
2021/09/17 03:30:49;;;;;;;2.07;1.63;;;14.10;98.00;;;;;;5033198;28;20502;-72
2021/09/17 03:33:16;;;;;;;1.40;1.30;;;14.10;98.00;;;;;;5032983;28;20465;-70
2021/09/17 03:35:44;;;;;;;1.43;1.33;;;14.10;98.00;;;;;;5032491;28;20488;-72
2021/09/17 03:38:13;;;;;;;1.67;1.20;;;14.20;98.00;;;;;;5033068;28;20492;-71
2021/09/17 03:40:41;;;;;;;2.30;1.70;;;14.20;98.00;;;;;;5032922;28;20950;-72
2021/09/17 03:43:08;;;;;;;2.83;1.73;;;14.30;98.00;;;;;;5032997;28;20526;-72
2021/09/17 03:45:36;;;;;;;1.50;1.27;;;14.30;98.00;;;;;;5032547;28;20492;-73
2021/09/17 03:48:08;;;;;;;1.50;1.20;;;14.40;98.00;;;;;;5032626;28;20452;-72
2021/09/17 03:50:35;;;;;;;1.83;1.57;;;14.30;98.00;;;;;;5032679;28;20460;-71
2021/09/17 03:53:02;;;;;;;1.47;1.40;;;14.30;98.00;;;;;;5032329;28;20469;-71
2021/09/17 03:55:32;;;;;;;1.73;1.40;;;14.30;98.00;;;;;;5014863;28;21022;-72
2021/09/17 03:58:00;;;;;;;1.67;1.47;;;14.30;98.00;;;;;;5032516;28;20490;-71
2021/09/17 04:00:27;;;;;;;2.47;1.53;;;14.30;98.00;;;;;;5014884;28;20493;-71
2021/09/17 04:02:54;;;;;;;1.20;1.20;;;14.30;98.00;;;;;;5032388;28;20501;-71
2021/09/17 04:05:21;;;;;;;1.83;1.30;;;14.30;98.00;;;;;;5032340;28;20525;-71
2021/09/17 04:07:48;;;;;;;1.77;1.40;;;14.50;98.00;;;;;;5015040;28;20456;-71
2021/09/17 04:10:18;;;;;;;1.23;1.23;;;14.50;98.00;;;;;;5032169;28;20462;-72
2021/09/17 04:12:47;;;;;;;2.17;1.73;;;14.30;98.00;;;;;;5031959;28;20461;-71
2021/09/17 04:15:14;;;;;;;1.63;1.20;;;14.40;98.00;;;;;;5032135;28;20453;-72
2021/09/17 04:17:42;;;;;;;2.50;1.70;;;14.30;98.00;;;;;;5032089;28;20519;-71
2021/09/17 04:20:10;;;;;;;2.07;1.50;;;14.10;98.00;;;;;;5031749;28;20480;-71
2021/09/17 04:22:37;;;;;;;1.60;1.47;;;14.20;98.00;;;;;;5031562;28;20479;-70
2021/09/17 04:25:04;;;;;;;1.30;1.23;;;14.30;98.00;;;;;;5031413;28;20485;-71
2021/09/17 04:27:31;;;;;;;1.50;1.27;;;14.40;98.00;;;;;;5031661;28;20493;-70
2021/09/17 04:30:00;;;;;;;1.30;1.30;;;14.50;98.00;;;;;;5031874;28;20935;-71
2021/09/17 04:32:27;;;;;;;2.07;1.43;;;14.40;98.00;;;;;;5031919;28;20465;-70
2021/09/17 04:34:56;;;;;;;1.67;1.23;;;14.20;98.00;;;;;;5031861;28;21253;-71
2021/09/17 04:37:24;;;;;;;1.60;1.30;;;14.20;98.00;;;;;;5031922;28;20515;-71
2021/09/17 04:39:51;;;;;;;1.87;1.40;;;14.20;98.00;;;;;;5031864;28;20876;-71
2021/09/17 04:42:18;;;;;;;1.47;1.37;;;14.30;98.00;;;;;;5031805;28;20926;-70
2021/09/17 04:44:45;;;;;;;1.20;1.10;;;14.30;98.00;;;;;;5031649;28;21012;-70
2021/09/17 04:47:13;;;;;;;1.90;1.33;;;14.10;98.00;;;;;;5031377;28;20503;-70
2021/09/17 04:49:40;;;;;;;1.67;1.20;;;14.00;98.00;;;;;;5031793;28;20452;-70
2021/09/17 04:52:08;;;;;;;1.30;1.13;;;14.10;98.00;;;;;;5031919;28;20463;-71
2021/09/17 04:54:35;;;;;;;2.67;1.63;;;14.10;98.00;;;;;;5031662;28;20961;-71
2021/09/17 04:57:05;;;;;;;1.40;1.30;;;14.00;98.00;;;;;;5031962;28;20501;-71
2021/09/17 04:59:32;;;;;;;1.30;1.10;;;13.90;98.00;;;;;;5032019;28;20940;-71
2021/09/17 05:02:00;;;;;;;1.30;1.20;;;13.90;98.00;;;;;;5014373;28;20502;-71
2021/09/17 05:04:28;;;;;;;1.60;1.47;;;13.90;98.00;;;;;;5014226;28;20486;-72
2021/09/17 05:06:56;;;;;;;1.20;1.10;;;14.00;98.00;;;;;;5031240;28;20584;-72
2021/09/17 05:09:23;;;;;;;1.20;1.20;;;14.10;98.00;;;;;;5031449;28;20461;-71
2021/09/17 05:11:50;;;;;;;1.20;1.10;;;14.20;98.00;;;;;;5031298;28;20524;-71
2021/09/17 05:14:17;;;;;;;1.83;1.53;;;14.30;98.00;;;;;;5031270;28;20556;-71
2021/09/17 05:16:45;;;;;;;1.40;1.30;;;14.40;98.00;;;;;;5031217;28;20584;-70
2021/09/17 05:19:12;;;;;;;1.40;1.10;;;14.30;98.00;;;;;;5031373;28;20463;-72
2021/09/17 05:21:42;;;;;;;1.63;1.37;;;14.40;98.00;;;;;;5031297;28;20460;-72
2021/09/17 05:24:09;;;;;;;1.50;1.20;;;14.30;98.00;;;;;;5031126;28;20486;-72
2021/09/17 05:26:36;;;;;;;1.30;1.10;;;14.30;98.00;;;;;;5013722;28;20483;-71
2021/09/17 05:29:03;;;;;;;1.60;1.30;;;14.30;98.00;;;;;;5031250;28;20869;-71
2021/09/17 05:31:30;;;;;;;1.20;1.10;;;14.30;98.00;;;;;;5031205;28;20951;-71
2021/09/17 05:33:57;;;;;;;1.20;1.10;;;14.40;98.00;;;;;;5031090;28;20546;-73
2021/09/17 05:36:24;;;;;;;1.50;1.40;;;14.50;98.00;;;;;;5031445;28;20483;-72
2021/09/17 05:38:52;;;;;;;1.43;1.37;;;14.60;98.00;;;;;;5031315;28;20536;-71
2021/09/17 05:41:19;;;;;;;1.60;1.47;;;14.60;98.00;;;;;;5031066;28;20496;-70
2021/09/17 05:43:46;;;;;;;1.63;1.53;;;14.50;98.00;;;;;;5031247;28;20460;-71
2021/09/17 05:46:13;;;;;;;2.00;1.53;;;14.30;98.00;;;;;;5031067;28;20521;-71
2021/09/17 05:48:40;;;;;;;3.10;1.77;;;14.30;98.00;;;;;;5031031;28;20484;-71
2021/09/17 05:51:10;;;;;;;1.50;1.10;;;14.40;98.00;;;;;;5031033;28;20495;-74
2021/09/17 05:53:37;;;;;;;1.30;1.30;;;14.40;98.00;;;;;;5013466;28;20475;-71
2021/09/17 05:56:06;;;;;;;2.07;1.40;;;14.40;98.00;;;;;;5030926;28;20540;-71
2021/09/17 05:58:34;;;;;;;1.67;1.47;;;14.40;98.00;;;;;;5029882;28;20463;-72
2021/09/17 06:01:02;;;;;;;2.30;1.83;;;14.50;98.00;;;;;;5034271;28;20502;-72
2021/09/17 06:03:29;;;;;;;1.80;1.33;;;14.50;98.00;;;;;;5034738;28;20469;-70
2021/09/17 06:05:56;;;;;;;1.93;1.40;;;14.60;98.00;;;;;;5034724;28;20528;-70
2021/09/17 06:08:23;;;;;;;2.13;1.40;;;14.70;98.00;;;;;;5034702;28;20526;-70
2021/09/17 06:10:50;;;;;;;1.60;1.30;;;14.80;98.00;;;;;;5034694;28;20467;-71
2021/09/17 06:13:18;;;;;;;1.70;1.50;;;14.80;98.00;;;;;;5034701;28;20942;-70
2021/09/17 06:15:45;;;;;;;1.60;1.40;;;14.80;98.00;;;;;;5034514;28;20449;-71
2021/09/17 06:18:12;;;;;;;1.57;1.47;;;14.90;98.00;;;;;;5034796;28;20459;-71
2021/09/17 06:20:39;;;;;;;1.40;1.20;;;14.90;98.00;;;;;;5034482;28;20492;-71
2021/09/17 06:23:06;;;;;;;1.20;1.10;;;14.70;98.00;;;;;;5034546;28;20496;-71
2021/09/17 06:25:33;;;;;;;2.17;1.70;;;14.60;98.00;;;;;;5016670;28;20511;-72
2021/09/17 06:30:42;;;;;;;2.40;1.90;;;14.70;98.00;;;;;;5034237;28;20463;-72
2021/09/17 06:33:10;;;;;;;2.00;1.57;;;14.70;98.00;;;;;;5034004;28;20480;-72
2021/09/17 06:35:37;;;;;;;1.73;1.37;;;14.80;98.00;;;;;;5033869;28;20814;-72
2021/09/17 06:38:04;;;;;;;2.17;2.00;;;14.90;98.00;;;;;;5033733;28;20456;-73
2021/09/17 06:40:31;;;;;;;1.53;1.10;;;14.80;98.00;;;;;;5033887;28;20523;-72
2021/09/17 06:42:58;;;;;;;2.33;1.37;;;14.80;98.00;;;;;;5033897;28;20458;-72
2021/09/17 06:45:25;;;;;;;1.37;1.30;;;14.80;98.00;;;;;;5033813;28;22355;-71
2021/09/17 06:47:54;;;;;;;2.10;1.80;;;14.80;98.00;;;;;;5033834;28;20513;-73
2021/09/17 06:50:23;;;;;;;1.73;1.43;;;14.80;98.00;;;;;;5033607;28;20462;-74
2021/09/17 06:52:53;;;;;;;1.83;1.50;;;14.80;98.00;;;;;;4999633;28;20493;-72
2021/09/17 06:55:22;;;;;;;2.30;2.00;;;14.90;98.00;;;;;;5033503;28;20462;-73
2021/09/17 06:57:51;;;;;;;1.80;1.60;;;15.00;98.00;;;;;;5033325;28;21013;-71
2021/09/17 07:00:22;;;;;;;2.03;1.70;;;14.90;98.00;;;;;;5033453;28;20486;-72
2021/09/17 07:02:49;;;;;;;1.40;1.30;;;14.90;98.00;;;;;;5033349;28;20461;-72
2021/09/17 07:05:26;;;;;;;1.50;1.37;;;14.90;98.00;;;;;;5033089;28;20525;-73
2021/09/17 07:07:59;;;;;;;1.50;1.40;;;15.00;98.00;;;;;;5033487;28;20485;-72
2021/09/17 07:10:29;;;;;;;1.80;1.30;;;15.10;98.00;;;;;;5033164;28;20464;-73
2021/09/17 07:12:56;;;;;;;1.20;1.20;;;15.20;98.00;;;;;;5032865;28;20852;-73
2021/09/17 07:15:23;;;;;;;1.73;1.60;;;15.20;98.00;;;;;;5033431;28;20874;-73
2021/09/17 07:17:50;;;;;;;1.40;1.17;;;15.30;98.00;;;;;;5033746;28;20517;-71
2021/09/17 07:20:19;;;;;;;1.57;1.47;;;15.50;98.00;;;;;;5033280;28;20470;-71
2021/09/17 07:22:47;;;;;;;2.03;1.60;;;15.50;98.00;;;;;;5033133;28;20540;-71
2021/09/17 07:25:15;;;;;;;2.20;1.63;;;15.40;98.00;;;;;;5033272;28;20469;-70
2021/09/17 07:27:43;;;;;;;2.00;1.50;;;15.40;98.00;;;;;;5023292;28;20585;-72
2021/09/17 07:30:11;;;;;;;1.10;1.00;;;15.60;98.00;;;;;;5015588;28;20502;-71
2021/09/17 07:32:38;;;;;;;1.53;1.50;;;16.10;98.00;;;;;;5020515;28;20492;-70
2021/09/17 07:35:06;;;;;;;1.33;1.23;;;16.20;98.00;;;;;;5020279;28;20579;-71
2021/09/17 07:37:35;;;;;;;2.47;1.77;;;16.40;98.00;;;;;;5014180;28;20491;-71
2021/09/17 07:40:04;;;;;;;2.13;1.93;;;16.60;98.00;;;;;;5028237;28;20507;-72
2021/09/17 07:42:31;;;;;;;1.70;1.60;;;16.80;98.00;;;;;;5017585;28;20475;-71
2021/09/17 07:44:58;;;;;;;2.90;2.03;;;16.80;98.00;;;;;;5013861;28;20556;-70
2021/09/17 07:47:25;;;;;;;1.73;1.60;;;16.60;98.00;;;;;;5017377;28;20530;-71
2021/09/17 07:49:52;;;;;;;2.93;1.93;;;16.40;98.00;;;;;;5015347;28;20470;-72
2021/09/17 07:52:19;;;;;;;1.70;1.63;;;16.30;98.00;;;;;;5013872;28;20502;-73
2021/09/17 07:54:48;;;;;;;1.50;1.37;;;16.20;98.00;;;;;;5016921;28;21070;-72
2021/09/17 07:57:15;;;;;;;1.73;1.50;;;16.20;98.00;;;;;;5019010;28;20495;-71
2021/09/17 07:59:42;;;;;;;3.83;1.60;;;16.30;98.00;;;;;;5013283;28;20575;-72
2021/09/17 08:02:09;;;;;;;1.77;1.70;;;16.20;98.00;;;;;;5027924;28;20450;-71
2021/09/17 08:04:38;;;;;;;2.53;1.67;;;16.10;98.00;;;;;;5018193;28;20459;-72
2021/09/17 08:07:05;;;;;;;2.20;1.77;;;16.10;98.00;;;;;;5017123;28;20534;-70
2021/09/17 08:09:33;;;;;;;1.50;1.50;;;16.10;98.00;;;;;;5020551;28;20459;-72
2021/09/17 08:12:01;;;;;;;2.10;1.50;;;16.10;98.00;;;;;;5026296;28;20552;-71
2021/09/17 08:14:30;;;;;;;1.50;1.40;;;16.00;98.00;;;;;;5010826;28;20459;-72
2021/09/17 08:16:58;;;;;;;2.03;1.50;;;16.20;98.00;;;;;;5012133;28;20528;-71
2021/09/17 08:19:26;;;;;;;2.07;1.80;;;16.40;98.00;;;;;;5018800;28;20515;-71
2021/09/17 08:21:54;;;;;;;4.40;2.20;;;16.50;98.00;;;;;;5026280;28;20452;-72
2021/09/17 08:24:24;;;;;;;2.23;1.70;;;16.50;98.00;;;;;;5027110;28;20517;-73
2021/09/17 08:26:53;;;;;;;1.87;1.33;;;16.50;98.00;;;;;;5021634;28;20494;-71
2021/09/17 08:29:22;;;;;;;2.13;1.80;;;16.30;98.00;;;;;;5018790;28;20517;-70
2021/09/17 08:31:49;;;;;;;2.27;1.67;;;16.30;98.00;;;;;;5025867;28;20558;-72
2021/09/17 08:34:18;;;;;;;1.80;1.60;;;16.40;98.00;;;;;;4999412;28;20506;-70
2021/09/17 08:36:45;;;;;;;1.77;1.73;;;16.50;98.00;;;;;;5008693;28;21147;-71
2021/09/17 08:39:14;;;;;;;2.33;1.97;;;16.50;98.00;;;;;;5011367;28;20458;-70
2021/09/17 08:41:43;;;;;;;1.90;1.70;;;16.50;98.00;;;;;;5010990;28;20478;-73
2021/09/17 08:44:11;;;;;;;1.73;1.47;;;16.60;98.00;;;;;;5010953;28;20492;-71
2021/09/17 08:46:41;;;;;;;2.33;1.43;;;16.70;98.00;;;;;;5011103;28;20518;-72
2021/09/17 08:49:10;;;;;;;1.93;1.90;;;16.90;98.00;;;;;;5011421;28;20470;-72
2021/09/17 08:51:38;;;;;;;1.37;1.27;;;17.00;98.00;;;;;;5011247;28;20953;-72
2021/09/17 08:54:06;;;;;;;1.97;1.90;;;17.10;98.00;;;;;;5011397;28;20521;-72
2021/09/17 08:56:33;;;;;;;1.57;1.50;;;17.20;98.00;;;;;;5011461;28;20541;-72
2021/09/17 08:59:01;;;;;;;1.40;1.20;;;17.30;98.00;;;;;;5011365;28;20495;-73
2021/09/17 09:01:30;;;;;;;2.30;2.10;;;17.10;98.00;;;;;;5011441;28;20491;-72
2021/09/17 09:04:02;;;;;;;2.57;1.60;;;17.10;98.00;;;;;;5011109;28;21059;-74
2021/09/17 09:06:34;;;;;;;3.20;2.07;;;17.20;98.00;;;;;;5011045;28;20482;-72
2021/09/17 09:09:01;;;;;;;2.07;1.87;;;17.20;98.00;;;;;;5010221;28;20565;-74
2021/09/17 09:11:31;;;;;;;2.03;1.93;;;17.40;98.00;;;;;;5011161;28;20456;-72
2021/09/17 09:14:05;;;;;;;2.47;2.13;;;17.60;98.00;;;;;;5010933;28;20455;-73
2021/09/17 09:16:35;;;;;;;2.47;1.90;;;17.80;98.00;;;;;;5011149;28;20455;-73
2021/09/17 09:19:23;;;;;;;2.80;1.73;;;17.60;98.00;;;;;;5010670;28;20981;-72
2021/09/17 09:21:51;;;;;;;2.00;1.60;;;17.50;98.00;;;;;;5010325;28;20471;-74
2021/09/17 09:24:19;;;;;;;2.40;1.60;;;17.40;98.00;;;;;;5011045;28;20495;-73
2021/09/17 09:26:47;;;;;;;1.87;1.87;;;17.40;98.00;;;;;;5010978;28;20569;-73
2021/09/17 09:29:29;;;;;;;2.10;1.90;;;17.50;98.00;;;;;;5010830;28;20504;-73
2021/09/17 09:31:56;;;;;;;2.13;1.97;;;17.60;98.00;;;;;;5010922;28;20501;-72
2021/09/17 09:34:49;;;;;;;2.53;2.13;;;17.70;98.00;;;;;;5011454;28;20525;-72
2021/09/17 09:37:20;;;;;;;1.30;1.30;;;17.70;98.00;;;;;;5014795;28;20506;-72
2021/09/17 09:39:56;;;;;;;2.40;2.03;;;17.80;98.00;;;;;;5014821;28;20509;-72
2021/09/17 09:42:34;;;;;;;2.03;1.87;;;18.00;98.00;;;;;;5014563;28;20964;-73
2021/09/17 09:45:14;;;;;;;1.60;1.50;;;18.00;98.00;;;;;;5014660;28;20498;-72
2021/09/17 09:47:43;;;;;;;2.00;1.70;;;18.10;98.00;;;;;;5014491;28;20519;-71
2021/09/17 09:50:13;;;;;;;1.73;1.63;;;18.10;98.00;;;;;;5014191;28;20584;-71
2021/09/17 09:52:40;;;;;;;2.40;2.10;;;18.20;98.00;;;;;;5014470;28;20799;-72
2021/09/17 09:55:10;;;;;;;2.10;1.50;;;18.30;98.00;;;;;;5014191;28;20518;-71
2021/09/17 09:57:41;;;;;;;2.43;2.10;;;18.40;98.00;;;;;;5014487;28;20479;-73
2021/09/17 10:00:10;;;;;;;2.83;2.17;;;18.50;98.00;;;;;;5014349;28;20478;-72
2021/09/17 10:02:38;;;;;;;1.63;1.47;;;18.60;98.00;;;;;;5014651;28;20463;-71
2021/09/17 10:05:07;;;;;;;2.00;1.87;;;18.60;98.00;;;;;;5014403;28;20513;-71
2021/09/17 10:07:36;;;;;;;2.30;1.70;;;18.70;98.00;;;;;;5014478;28;20514;-72
2021/09/17 10:10:05;;;;;;;2.90;2.00;;;18.80;98.00;;;;;;5014339;28;20537;-73
2021/09/17 10:12:33;;;;;;;2.00;1.87;;;19.00;98.00;;;;;;5014374;28;20455;-71
2021/09/17 10:15:00;;;;;;;3.73;1.97;;;19.10;98.00;;;;;;5011509;28;20876;-72
2021/09/17 10:17:30;;;;;;;2.93;1.57;;;19.10;98.00;;;;;;5013067;28;20787;-72
2021/09/17 10:20:00;;;;;;;2.20;1.90;;;19.20;98.00;;;;;;5012715;28;20483;-72
2021/09/17 10:22:30;;;;;;;2.00;1.63;;;19.30;98.00;;;;;;5011267;28;20525;-72
2021/09/17 10:25:12;;;;;;;2.67;1.63;;;19.30;98.00;;;;;;5012730;28;20455;-72
2021/09/17 10:27:41;;;;;;;1.93;1.47;;;19.40;98.00;;;;;;5015186;28;20605;-72
2021/09/17 10:30:10;;;;;;;1.67;1.40;;;19.40;98.00;;;;;;5012850;28;20487;-72
2021/09/17 10:32:42;;;;;;;1.53;1.43;;;19.50;98.00;;;;;;5012812;28;20490;-72
2021/09/17 10:35:13;;;;;;;1.60;1.50;;;19.70;98.00;;;;;;5013499;28;20509;-72
2021/09/17 10:37:58;;;;;;;2.40;1.50;;;19.60;98.00;;;;;;5013645;28;20483;-71
2021/09/17 10:40:49;;;;;;;2.33;1.87;;;19.40;98.00;;;;;;5013576;28;20451;-72
2021/09/17 10:43:28;;;;;;;1.83;1.70;;;19.40;98.00;;;;;;5013358;28;20499;-72
2021/09/17 10:45:57;;;;;;;3.00;1.97;;;19.50;98.00;;;;;;5011655;28;20510;-72
2021/09/17 10:48:25;;;;;;;1.97;1.70;;;19.60;98.00;;;;;;5012704;28;20487;-72
2021/09/17 10:50:55;;;;;;;1.50;1.40;;;19.70;98.00;;;;;;5012788;28;20460;-72
2021/09/17 10:54:02;;;;;;;1.93;1.43;;;19.80;98.00;;;;;;5013074;28;20468;-70
2021/09/17 10:57:05;;;;;;;1.90;1.47;;;19.90;98.00;;;;;;5012752;28;20455;-72
2021/09/17 10:59:52;;;;;;;3.33;1.27;;;20.10;98.00;;;;;;5013332;28;20873;-72
2021/09/17 11:02:19;;;;;;;1.80;1.57;;;20.40;98.00;;;;;;5013169;28;20447;-72
2021/09/17 11:04:48;;;;;;;2.20;1.80;;;20.50;98.00;;;;;;5013371;28;20455;-72
2021/09/17 11:07:37;;;;;;;1.67;1.40;;;20.40;98.00;;;;;;5013157;28;20483;-71
2021/09/17 11:10:22;;;;;;;4.33;2.20;;;20.60;98.00;;;;;;5013025;28;20451;-73
2021/09/17 11:12:51;;;;;;;2.10;1.67;;;20.70;98.00;;;;;;5013093;28;20459;-71
2021/09/17 11:15:23;;;;;;;2.10;1.77;;;20.90;98.00;;;;;;5013013;28;20499;-72
2021/09/17 11:17:52;;;;;;;1.60;1.50;;;21.00;98.00;;;;;;5012914;28;20491;-74
2021/09/17 11:20:24;;;;;;;3.03;1.80;;;20.80;96.80;;;;;;5012028;28;20831;-73
2021/09/17 11:22:56;;;;;;;2.13;1.70;;;20.80;95.30;;;;;;5012811;28;20807;-72
2021/09/17 11:25:26;;;;;;;2.60;1.87;;;20.90;96.50;;;;;;5012882;28;20501;-73
2021/09/17 11:27:55;;;;;;;1.70;1.60;;;20.80;97.70;;;;;;5012964;28;20490;-72
2021/09/17 11:30:24;;;;;;;1.80;1.63;;;21.00;96.90;;;;;;5012922;28;20526;-72
2021/09/17 11:32:52;;;;;;;3.10;1.90;;;21.20;94.60;;;;;;5013124;28;20510;-74
2021/09/17 11:35:20;;;;;;;3.03;1.67;;;21.30;95.70;;;;;;5012250;28;20478;-73
2021/09/17 11:37:55;;;;;;;2.47;1.83;;;21.30;95.20;;;;;;5013222;28;20459;-73
2021/09/17 11:40:22;;;;;;;1.60;1.53;;;21.40;94.80;;;;;;5013047;28;20524;-73
2021/09/17 11:42:50;;;;;;;2.60;1.73;;;21.30;92.90;;;;;;5012680;28;20993;-72
2021/09/17 11:45:21;;;;;;;1.77;1.47;;;21.10;93.80;;;;;;5012440;28;20525;-72
2021/09/17 11:47:51;;;;;;;2.90;1.87;;;21.10;95.60;;;;;;5012032;28;20582;-73
2021/09/17 11:50:19;;;;;;;1.80;1.60;;;21.20;95.80;;;;;;5012118;28;20452;-73
2021/09/17 11:52:47;;;;;;;1.93;1.43;;;21.40;94.50;;;;;;5012128;28;20533;-74
2021/09/17 11:55:17;;;;;;;2.03;1.70;;;21.40;94.00;;;;;;5012196;28;20796;-72
2021/09/17 11:57:46;;;;;;;1.80;1.57;;;21.30;93.60;;;;;;5011512;28;20510;-71
2021/09/17 12:00:16;;;;;;;1.97;1.63;;;21.00;95.60;;;;;;5012325;28;20494;-70
2021/09/17 12:02:45;;;;;;;1.93;1.67;;;20.90;97.60;;;;;;5012213;28;20466;-71
2021/09/17 12:05:16;;;;;;;1.40;1.37;;;20.80;95.70;;;;;;5012406;28;20459;-70
2021/09/17 12:07:48;;;;;;;2.00;1.63;;;20.70;95.90;;;;;;5012197;28;20562;-71
2021/09/17 12:10:18;;;;;;;1.60;1.60;;;20.70;97.40;;;;;;5012311;28;20463;-70
2021/09/17 12:12:51;;;;;;;1.93;1.50;;;20.80;96.30;;;;;;5012243;28;20866;-70
2021/09/17 12:15:26;;;;;;;1.80;1.80;;;20.90;96.30;;;;;;5012280;28;20541;-71
2021/09/17 12:17:57;;;;;;;1.80;1.37;;;21.00;96.90;;;;;;5012291;28;20514;-71
2021/09/17 12:20:38;;;;;;;1.63;1.50;;;20.90;95.50;;;;;;5012129;28;20467;-71
2021/09/17 12:23:06;;;;;;;2.17;1.30;;;20.70;97.10;;;;;;5012019;28;20491;-71
2021/09/17 12:25:33;;;;;;;1.73;1.67;;;20.70;98.00;;;;;;5012134;28;20950;-70
2021/09/17 12:28:02;;;;;;;1.50;1.40;;;20.80;98.00;;;;;;5012109;28;20875;-71
2021/09/17 12:30:32;;;;;;;1.60;1.50;;;20.70;97.80;;;;;;5012162;28;20467;-70
2021/09/17 12:33:22;;;;;;;2.33;1.60;;;20.70;98.00;;;;;;5012185;28;20498;-71
2021/09/17 12:35:52;;;;;;;1.50;1.47;;;20.70;97.40;;;;;;5006520;28;20454;-71
2021/09/17 12:38:21;;;;;;;1.63;1.50;;;20.70;96.10;;;;;;5011964;28;20976;-71
2021/09/17 12:40:51;;;;;;;2.00;1.87;;;20.70;97.20;;;;;;5011970;28;20451;-71
2021/09/17 12:43:26;;;;;;;1.60;1.40;;;21.00;98.00;;;;;;5012164;28;20821;-70
2021/09/17 12:46:01;;;;;;;1.97;1.60;;;21.00;95.60;;;;;;5012021;28;20783;-71
2021/09/17 12:48:32;;;;;;;1.80;1.40;;;21.00;95.90;;;;;;5011763;28;20497;-71
2021/09/17 12:50:59;;;;;;;2.40;1.70;;;21.20;96.10;;;;;;5012074;28;20513;-71
2021/09/17 12:53:33;;;;;;;2.07;1.50;;;21.70;96.70;;;;;;5011437;28;20467;-71
2021/09/17 12:56:05;;;;;;;2.80;2.03;;;22.00;95.90;;;;;;5012042;28;20462;-71
2021/09/17 12:58:33;;;;;;;1.87;1.53;;;22.20;94.60;;;;;;5011900;28;20466;-71
2021/09/17 13:01:04;;;;;;;1.73;1.63;;;22.30;95.00;;;;;;5011645;28;20981;-71
2021/09/17 13:03:33;;;;;;;1.97;1.70;;;22.20;94.50;;;;;;5010460;28;20463;-71